Time;durP1;ratioP1;P1;durP2;ratioP2;P2;SDS_P1;SDS_P2;PMS_P1;PMS_P2;Temp;Humidity;BMP_temperature;BMP_pressure;BME280_temperature;BME280_humidity;BME280_pressure;Samples;Min_cycle;Max_cycle;Signal;HPM_P1;HPM_P2
2020/12/16 00:01:51;;;;;;;;;;;;;;;6.03;100.00;100871.84;5115056;28;19932;-73
2020/12/16 00:04:17;;;;;;;;;;;;;;;6.02;100.00;100870.97;5113521;28;20027;-73
2020/12/16 00:06:43;;;;;;;;;;;;;;;6.00;100.00;100874.72;5114723;28;19936;-72
2020/12/16 00:09:09;;;;;;;;;;;;;;;5.99;100.00;100884.63;5114698;28;19924;-73
2020/12/16 00:11:35;;;;;;;;;;;;;;;5.98;100.00;100888.28;5114724;28;19928;-73
2020/12/16 00:14:01;;;;;;;;;;;;;;;5.97;100.00;100891.03;5113572;28;19976;-73
2020/12/16 00:16:27;;;;;;;;;;;;;;;5.96;100.00;100898.25;5114658;28;19931;-73
2020/12/16 00:18:52;;;;;;;;;;;;;;;5.95;100.00;100891.13;5114606;28;20537;-73
2020/12/16 00:21:20;;;;;;;;;;;;;;;5.95;100.00;100895.66;5114658;28;19927;-73
2020/12/16 00:23:46;;;;;;;;;;;;;;;5.92;100.00;100907.50;5114109;28;20395;-73
2020/12/16 00:26:13;;;;;;;;;;;;;;;5.91;100.00;100907.59;5114133;28;19924;-73
2020/12/16 00:28:39;;;;;;;;;;;;;;;5.91;100.00;100919.22;5114524;28;20014;-73
2020/12/16 00:31:04;;;;;;;;;;;;;;;5.89;100.00;100912.19;5114062;28;20396;-73
2020/12/16 00:33:30;;;;;;;;;;;;;;;5.89;100.00;100922.97;5114090;28;19931;-73
2020/12/16 00:35:56;;;;;;;;;;;;;;;5.90;100.00;100932.78;5114154;28;19923;-73
2020/12/16 00:38:22;;;;;;;;;;;;;;;5.89;100.00;100936.44;5113999;28;19947;-73
2020/12/16 00:40:47;;;;;;;;;;;;;;;5.90;100.00;100932.78;5114141;28;20389;-73
2020/12/16 00:43:14;;;;;;;;;;;;;;;5.90;100.00;100932.78;5114820;28;19931;-73
2020/12/16 00:45:40;;;;;;;;;;;;;;;5.91;100.00;100945.31;5113896;28;20027;-73
2020/12/16 00:48:06;;;;;;;;;;;;;;;5.93;100.00;100946.91;5112662;28;20547;-73
2020/12/16 00:50:31;;;;;;;;;;;;;;;5.96;100.00;100951.25;5112306;28;19974;-73
2020/12/16 00:53:01;;;;;;;;;;;;;;;5.97;100.00;100953.00;5108870;28;19955;-73
2020/12/16 00:55:30;;;;;;;;;;;;;;;5.98;100.00;100962.88;5104256;28;20007;-73
2020/12/16 00:57:56;;;;;;;;;;;;;;;6.01;100.00;100962.69;5113699;28;20006;-73
2020/12/16 01:00:23;;;;;;;;;;;;;;;6.02;100.00;100964.44;5113616;28;19973;-72
2020/12/16 01:02:53;;;;;;;;;;;;;;;6.02;100.00;100967.13;5112422;28;19972;-72
2020/12/16 01:05:24;;;;;;;;;;;;;;;6.05;100.00;100975.03;5112325;28;19931;-72
2020/12/16 01:07:50;;;;;;;;;;;;;;;6.07;100.00;100983.03;5111787;28;19924;-72
2020/12/16 01:10:18;;;;;;;;;;;;;;;6.07;100.00;100978.50;5112282;28;19927;-72
2020/12/16 01:12:45;;;;;;;;;;;;;;;6.09;100.00;100984.66;5112229;28;19970;-73
2020/12/16 01:15:12;;;;;;;;;;;;;;;6.13;100.00;100986.25;5111964;28;20292;-72
2020/12/16 01:17:39;;;;;;;;;;;;;;;6.16;100.00;100990.56;5113129;28;19924;-72
2020/12/16 01:20:06;;;;;;;;;;;;;;;6.19;100.00;100995.78;5112300;28;19923;-73
2020/12/16 01:22:36;;;;;;;;;;;;;;;6.22;100.00;100994.75;5112181;28;20338;-73
2020/12/16 01:25:02;;;;;;;;;;;;;;;6.25;100.00;100994.56;5111818;28;19935;-73
2020/12/16 01:27:27;;;;;;;;;;;;;;;6.26;100.00;100996.31;5112075;28;19924;-73
2020/12/16 01:29:53;;;;;;;;;;;;;;;6.29;100.00;100996.97;5113287;27;19928;-73
2020/12/16 01:32:19;;;;;;;;;;;;;;;6.32;100.00;101004.00;5111749;28;19931;-73
2020/12/16 01:34:46;;;;;;;;;;;;;;;6.33;100.00;101001.25;5112984;28;20286;-73
2020/12/16 01:37:12;;;;;;;;;;;;;;;6.35;100.00;101012.78;5111700;28;19946;-73
2020/12/16 01:39:46;;;;;;;;;;;;;;;6.37;100.00;101010.00;5113005;28;20024;-73
2020/12/16 01:42:18;;;;;;;;;;;;;;;6.40;100.00;101017.03;5111757;28;19928;-73
2020/12/16 01:44:44;;;;;;;;;;;;;;;6.41;100.00;101019.66;5112529;28;20014;-73
2020/12/16 01:47:11;;;;;;;;;;;;;;;6.44;100.00;101014.09;5094207;28;20295;-73
2020/12/16 01:49:50;;;;;;;;;;;;;;;6.47;100.00;101016.59;5111674;28;20373;-72
2020/12/16 01:52:19;;;;;;;;;;;;;;;6.49;100.00;101024.59;5111476;28;19924;-73
2020/12/16 01:54:50;;;;;;;;;;;;;;;6.50;100.00;101024.50;5111581;28;19958;-73
2020/12/16 01:57:19;;;;;;;;;;;;;;;6.52;100.00;101016.31;5111342;28;19928;-73
2020/12/16 01:59:53;;;;;;;;;;;;;;;6.56;100.00;101025.09;5111385;28;20002;-73
2020/12/16 02:02:51;;;;;;;;;;;;;;;6.56;100.00;101028.69;5112363;28;19927;-72
2020/12/16 02:05:26;;;;;;;;;;;;;;;6.58;100.00;101026.75;5111465;28;19928;-73
2020/12/16 02:08:02;;;;;;;;;;;;;;;6.60;100.00;101029.34;5110980;28;20328;-73
2020/12/16 02:10:32;;;;;;;;;;;;;;;6.62;100.00;101019.34;5111068;28;19955;-73
2020/12/16 02:12:57;;;;;;;;;;;;;;;6.62;100.00;101031.00;5111096;28;19930;-73
2020/12/16 02:15:23;;;;;;;;;;;;;;;6.66;100.00;101034.38;5110950;28;19923;-73
2020/12/16 02:17:49;;;;;;;;;;;;;;;6.67;100.00;101034.28;5110856;28;20386;-72
2020/12/16 02:20:16;;;;;;;;;;;;;;;6.67;100.00;101033.44;5110846;28;19924;-73
2020/12/16 02:22:51;;;;;;;;;;;;;;;6.70;100.00;101035.94;5111051;28;19924;-73
2020/12/16 02:25:21;;;;;;;;;;;;;;;6.68;100.00;101038.72;5111048;28;20400;-73
2020/12/16 02:27:56;;;;;;;;;;;;;;;6.70;100.00;101044.88;5110806;28;19928;-73
2020/12/16 02:30:27;;;;;;;;;;;;;;;6.70;100.00;101042.19;5111128;28;20433;-73
2020/12/16 02:33:25;;;;;;;;;;;;;;;6.72;100.00;101044.81;5081986;28;19982;-73
2020/12/16 02:36:01;;;;;;;;;;;;;;;6.73;100.00;101057.31;5107171;28;20300;-73
2020/12/16 02:38:45;;;;;;;;;;;;;;;6.72;100.00;101054.72;5110904;28;19924;-72
2020/12/16 02:41:13;;;;;;;;;;;;;;;6.73;100.00;101051.06;5094843;28;19974;-72
2020/12/16 02:43:38;;;;;;;;;;;;;;;6.72;100.00;101060.13;5095854;28;20380;-72
2020/12/16 02:46:04;;;;;;;;;;;;;;;6.73;100.00;101061.88;5094416;28;20021;-73
2020/12/16 02:48:30;;;;;;;;;;;;;;;6.73;100.00;101061.88;5111719;28;19977;-73
2020/12/16 02:50:57;;;;;;;;;;;;;;;6.72;100.00;101069.09;5111661;28;19928;-73
2020/12/16 02:53:23;;;;;;;;;;;;;;;6.73;100.00;101070.81;5110985;28;19963;-72
2020/12/16 02:56:08;;;;;;;;;;;;;;;6.73;100.00;101072.66;5095467;28;20022;-73
2020/12/16 02:58:48;;;;;;;;;;;;;;;6.73;100.00;101075.34;5111427;28;19924;-73
2020/12/16 03:01:15;;;;;;;;;;;;;;;6.72;100.00;101081.69;5094419;28;20275;-73
2020/12/16 03:04:00;;;;;;;;;;;;;;;6.71;100.00;101083.53;5095572;28;19948;-73
2020/12/16 03:06:58;;;;;;;;;;;;;;;6.70;100.00;101084.50;5085221;28;19959;-73
2020/12/16 03:09:29;;;;;;;;;;;;;;;6.69;100.00;101089.03;5111239;28;19924;-72
2020/12/16 03:11:56;;;;;;;;;;;;;;;6.68;100.00;101083.69;5094113;28;19958;-73
2020/12/16 03:14:30;;;;;;;;;;;;;;;6.67;100.00;101090.09;5111075;28;19924;-73
2020/12/16 03:16:57;;;;;;;;;;;;;;;6.67;100.00;101095.47;5111070;28;19924;-72
2020/12/16 03:19:29;;;;;;;;;;;;;;;6.66;100.00;101099.13;5111119;28;19953;-73
2020/12/16 03:21:55;;;;;;;;;;;;;;;6.68;100.00;101091.81;5094052;28;19924;-73
2020/12/16 03:24:32;;;;;;;;;;;;;;;6.66;100.00;101097.28;5110795;28;19939;-73
2020/12/16 03:27:05;;;;;;;;;;;;;;;6.65;100.00;101098.25;5093742;28;19930;-73
2020/12/16 03:29:44;;;;;;;;;;;;;;;6.65;100.00;101100.09;5110773;28;19931;-73
2020/12/16 03:32:25;;;;;;;;;;;;;;;6.64;100.00;101111.81;5095108;28;19928;-73
2020/12/16 03:35:02;;;;;;;;;;;;;;;6.65;100.00;101102.78;5093846;28;19932;-73
2020/12/16 03:37:28;;;;;;;;;;;;;;;6.64;100.00;101111.81;5093549;28;19957;-72
2020/12/16 03:39:54;;;;;;;;;;;;;;;6.64;100.00;101114.53;5094118;28;19928;-73
2020/12/16 03:42:27;;;;;;;;;;;;;;;6.64;100.00;101118.13;5093107;28;19931;-73
2020/12/16 03:44:53;;;;;;;;;;;;;;;6.64;100.00;101118.13;5110584;28;19924;-73
2020/12/16 03:47:20;;;;;;;;;;;;;;;6.64;100.00;101119.91;5093481;28;19928;-73
2020/12/16 03:49:49;;;;;;;;;;;;;;;6.64;100.00;101111.81;5109242;28;19924;-73
2020/12/16 03:52:15;;;;;;;;;;;;;;;6.64;100.00;101111.81;5094615;28;19924;-73
2020/12/16 03:54:50;;;;;;;;;;;;;;;6.64;100.00;101111.81;5093462;28;20297;-73
2020/12/16 03:57:28;;;;;;;;;;;;;;;6.64;100.00;101114.53;5093209;28;19928;-73
2020/12/16 04:00:13;;;;;;;;;;;;;;;6.64;100.00;101119.91;5094500;28;19974;-73
2020/12/16 04:02:42;;;;;;;;;;;;;;;6.63;100.00;101120.91;5094453;28;20034;-72
2020/12/16 04:05:19;;;;;;;;;;;;;;;6.64;100.00;101130.72;5110201;28;20297;-73
2020/12/16 04:07:46;;;;;;;;;;;;;;;6.64;100.00;101128.91;5093833;28;19925;-72
2020/12/16 04:10:28;;;;;;;;;;;;;;;6.65;100.00;101135.16;5093060;28;19931;-73
2020/12/16 04:12:54;;;;;;;;;;;;;;;6.64;100.00;101136.09;5093185;28;19924;-73
2020/12/16 04:15:20;;;;;;;;;;;;;;;6.64;100.00;101133.41;5110021;28;19969;-73
2020/12/16 04:17:46;;;;;;;;;;;;;;;6.66;100.00;101131.50;5092694;28;19963;-73
2020/12/16 04:20:17;;;;;;;;;;;;;;;6.66;100.00;101132.38;5093039;28;20343;-73
2020/12/16 04:22:56;;;;;;;;;;;;;;;6.68;100.00;101134.97;5092946;28;20045;-73
2020/12/16 04:25:23;;;;;;;;;;;;;;;6.70;100.00;101138.47;5109640;28;20389;-73
2020/12/16 04:27:49;;;;;;;;;;;;;;;6.69;100.00;101150.19;5092781;28;19924;-73
2020/12/16 04:30:18;;;;;;;;;;;;;;;6.69;100.00;101142.09;5092800;28;19955;-73
2020/12/16 04:32:56;;;;;;;;;;;;;;;6.70;100.00;101142.00;5109779;28;19928;-73
2020/12/16 04:35:22;;;;;;;;;;;;;;;6.72;100.00;101141.06;5093826;28;19924;-73
2020/12/16 04:37:49;;;;;;;;;;;;;;;6.70;100.00;101136.63;5109659;28;19931;-73
2020/12/16 04:40:16;;;;;;;;;;;;;;;6.72;100.00;101143.75;5111561;28;19930;-73
2020/12/16 04:42:42;;;;;;;;;;;;;;;6.73;100.00;101145.50;5112710;28;20022;-73
2020/12/16 04:45:09;;;;;;;;;;;;;;;6.74;100.00;101145.41;5112811;28;19924;-73
2020/12/16 04:47:35;;;;;;;;;;;;;;;6.74;100.00;101148.09;5112667;28;19947;-72
2020/12/16 04:50:11;;;;;;;;;;;;;;;6.74;100.00;101156.19;5112639;28;19930;-73
2020/12/16 04:52:49;;;;;;;;;;;;;;;6.75;100.00;101165.16;5112825;28;19924;-72
2020/12/16 04:55:24;;;;;;;;;;;;;;;6.73;100.00;101170.66;5112690;28;19924;-72
2020/12/16 04:58:17;;;;;;;;;;;;;;;6.73;100.00;101164.41;5112543;28;20359;-73
2020/12/16 05:00:43;;;;;;;;;;;;;;;6.73;100.00;101164.41;5112163;28;19924;-73
2020/12/16 05:03:29;;;;;;;;;;;;;;;6.75;100.00;101178.66;5113185;28;20389;-72
2020/12/16 05:06:10;;;;;;;;;;;;;;;6.73;100.00;101184.13;5112389;28;19965;-72
2020/12/16 05:08:36;;;;;;;;;;;;;;;6.73;100.00;101186.84;5113375;28;19956;-72
2020/12/16 05:11:02;;;;;;;;;;;;;;;6.73;100.00;101186.84;5113463;28;19935;-74
2020/12/16 05:13:28;;;;;;;;;;;;;;;6.73;100.00;101180.59;5113315;28;20042;-72
2020/12/16 05:15:53;;;;;;;;;;;;;;;6.74;100.00;101177.78;5113344;28;20369;-72
2020/12/16 05:18:20;;;;;;;;;;;;;;;6.73;100.00;101181.44;5113132;28;20282;-72
2020/12/16 05:20:49;;;;;;;;;;;;;;;6.75;100.00;101189.44;5113070;28;20422;-71
2020/12/16 05:23:15;;;;;;;;;;;;;;;6.73;100.00;101194.94;5113365;28;19923;-71
2020/12/16 05:25:56;;;;;;;;;;;;;;;6.74;100.00;101199.38;5113274;28;19963;-72
2020/12/16 05:28:25;;;;;;;;;;;;;;;6.73;100.00;101205.72;5113133;28;19939;-71
2020/12/16 05:30:53;;;;;;;;;;;;;;;6.73;100.00;101207.56;5113130;28;20039;-72
2020/12/16 05:33:19;;;;;;;;;;;;;;;6.73;100.00;101212.97;5112969;28;19970;-72
2020/12/16 05:35:48;;;;;;;;;;;;;;;6.75;100.00;101219.13;5112865;28;20022;-72
2020/12/16 05:38:14;;;;;;;;;;;;;;;6.76;100.00;101218.16;5112611;28;19924;-71
2020/12/16 05:40:41;;;;;;;;;;;;;;;6.75;100.00;101221.81;5113070;28;19924;-71
2020/12/16 05:43:07;;;;;;;;;;;;;;;6.74;100.00;101220.09;5112942;28;19959;-72
2020/12/16 05:45:37;;;;;;;;;;;;;;;6.77;100.00;101219.91;5112789;28;19953;-71
2020/12/16 05:48:05;;;;;;;;;;;;;;;6.77;100.00;101225.31;5110052;28;19964;-71
2020/12/16 05:50:35;;;;;;;;;;;;;;;6.77;100.00;101228.00;5095052;28;20447;-71
2020/12/16 05:53:11;;;;;;;;;;;;;;;6.77;100.00;101230.72;5092247;28;19931;-71
2020/12/16 05:55:37;;;;;;;;;;;;;;;6.76;100.00;101239.75;5103195;28;19968;-71
2020/12/16 05:58:11;;;;;;;;;;;;;;;6.78;100.00;101246.81;5112037;28;19957;-71
2020/12/16 06:00:44;;;;;;;;;;;;;;;6.77;100.00;101241.50;5102941;28;19930;-71
2020/12/16 06:03:15;;;;;;;;;;;;;;;6.78;100.00;101243.25;5106149;28;19964;-71
2020/12/16 06:05:43;;;;;;;;;;;;;;;6.79;100.00;101251.25;5092098;28;19950;-71
2020/12/16 06:08:10;;;;;;;;;;;;;;;6.79;100.00;101243.16;5099036;28;20456;-71
2020/12/16 06:10:38;;;;;;;;;;;;;;;6.80;100.00;101260.22;5097015;28;19968;-71
2020/12/16 06:13:04;;;;;;;;;;;;;;;6.80;100.00;101258.41;5093124;28;19931;-71
2020/12/16 06:15:32;;;;;;;;;;;;;;;6.80;100.00;101258.41;5112269;28;19954;-71
2020/12/16 06:18:02;;;;;;;;;;;;;;;6.80;100.00;101257.50;5112150;28;19966;-71
2020/12/16 06:20:35;;;;;;;;;;;;;;;6.79;100.00;101262.06;5099444;28;20355;-71
2020/12/16 06:23:01;;;;;;;;;;;;;;;6.80;100.00;101258.41;5102898;28;20014;-70
2020/12/16 06:25:27;;;;;;;;;;;;;;;6.80;100.00;101253.00;5092310;28;19924;-71
2020/12/16 06:27:53;;;;;;;;;;;;;;;6.80;100.00;101258.41;5097778;28;19959;-71
2020/12/16 06:30:26;;;;;;;;;;;;;;;6.81;100.00;101270.06;5112259;28;19931;-71
2020/12/16 06:33:01;;;;;;;;;;;;;;;6.78;100.00;101276.50;5111994;28;19967;-71
2020/12/16 06:35:27;;;;;;;;;;;;;;;6.78;100.00;101281.88;5114006;28;20024;-71
2020/12/16 06:38:14;;;;;;;;;;;;;;;6.78;100.00;101291.81;5112356;28;19932;-71
2020/12/16 06:40:43;;;;;;;;;;;;;;;6.78;100.00;101291.81;5095506;28;20022;-71
2020/12/16 06:43:24;;;;;;;;;;;;;;;6.74;100.00;101291.13;5097815;28;19970;-72
2020/12/16 06:45:49;;;;;;;;;;;;;;;6.74;100.00;101296.50;5103186;28;20014;-72
2020/12/16 06:48:30;;;;;;;;;;;;;;;6.74;100.00;101299.22;5103759;28;19935;-72
2020/12/16 06:51:11;;;;;;;;;;;;;;;6.75;100.00;101302.78;5111519;28;20014;-72
2020/12/16 06:53:38;;;;;;;;;;;;;;;6.73;100.00;101294.75;5096778;28;20014;-72
2020/12/16 06:56:06;;;;;;;;;;;;;;;6.72;100.00;101303.84;5110024;28;20437;-72
2020/12/16 06:58:35;;;;;;;;;;;;;;;6.68;100.00;101311.22;5094139;28;20022;-72
2020/12/16 07:01:10;;;;;;;;;;;;;;;6.67;100.00;101308.63;5095246;28;19962;-72
2020/12/16 07:03:36;;;;;;;;;;;;;;;6.66;100.00;101310.44;5111847;28;19931;-72
2020/12/16 07:06:02;;;;;;;;;;;;;;;6.68;100.00;101318.44;5110621;28;20035;-71
2020/12/16 07:08:28;;;;;;;;;;;;;;;6.65;100.00;101311.38;5111483;28;19927;-72
2020/12/16 07:10:55;;;;;;;;;;;;;;;6.64;100.00;101314.16;5108555;28;19924;-71
2020/12/16 07:13:25;;;;;;;;;;;;;;;6.65;100.00;101322.16;5099800;28;20132;-71
2020/12/16 07:15:53;;;;;;;;;;;;;;;6.67;100.00;101320.28;5110680;28;19953;-71
2020/12/16 07:18:23;;;;;;;;;;;;;;;6.62;100.00;101324.19;5111817;28;20022;-72
2020/12/16 07:20:49;;;;;;;;;;;;;;;6.60;100.00;101334.19;5110574;28;20434;-71
2020/12/16 07:23:14;;;;;;;;;;;;;;;6.61;100.00;101331.38;5091700;28;19927;-73
2020/12/16 07:25:43;;;;;;;;;;;;;;;6.61;100.00;101344.00;5094915;28;19977;-71
2020/12/16 07:28:09;;;;;;;;;;;;;;;6.63;100.00;101342.13;5096466;28;19931;-71
2020/12/16 07:30:47;;;;;;;;;;;;;;;6.64;100.00;101339.34;5111133;28;20543;-71
2020/12/16 07:33:13;;;;;;;;;;;;;;;6.68;100.00;101348.09;5095268;28;20372;-71
2020/12/16 07:35:43;;;;;;;;;;;;;;;6.68;100.00;101345.41;5105434;28;19990;-71
2020/12/16 07:38:09;;;;;;;;;;;;;;;6.71;100.00;101339.88;5112920;28;19963;-71
2020/12/16 07:40:35;;;;;;;;;;;;;;;6.71;100.00;101339.88;5110608;28;20018;-71
2020/12/16 07:43:01;;;;;;;;;;;;;;;6.72;100.00;101340.72;5106864;28;19923;-71
2020/12/16 07:45:27;;;;;;;;;;;;;;;6.75;100.00;101337.84;5108844;28;19924;-71
2020/12/16 07:47:54;;;;;;;;;;;;;;;6.77;100.00;101334.09;5114790;28;20118;-71
2020/12/16 07:50:19;;;;;;;;;;;;;;;6.81;100.00;101341.06;5114425;28;20014;-72
2020/12/16 07:52:50;;;;;;;;;;;;;;;6.81;100.00;101338.38;5113751;28;20412;-72
2020/12/16 07:55:22;;;;;;;;;;;;;;;6.84;100.00;101340.03;5103178;28;20015;-74
2020/12/16 07:57:47;;;;;;;;;;;;;;;6.81;100.00;101335.69;5113883;28;20031;-73
2020/12/16 08:00:13;;;;;;;;;;;;;;;6.81;100.00;101332.97;5103286;28;20285;-72
2020/12/16 08:02:44;;;;;;;;;;;;;;;6.84;100.00;101340.94;5094354;28;20313;-73
2020/12/16 08:05:13;;;;;;;;;;;;;;;6.85;100.00;101345.38;5100953;28;19924;-72
2020/12/16 08:07:39;;;;;;;;;;;;;;;6.86;100.00;101346.22;5108984;27;20031;-72
2020/12/16 08:10:06;;;;;;;;;;;;;;;6.86;100.00;101349.78;5113771;28;19941;-72
2020/12/16 08:12:32;;;;;;;;;;;;;;;6.90;100.00;101344.25;5114667;28;19970;-72
2020/12/16 08:15:06;;;;;;;;;;;;;;;6.89;100.00;101348.75;5110013;28;19927;-72
2020/12/16 08:17:36;;;;;;;;;;;;;;;6.93;100.00;101352.16;5110733;28;19980;-72
2020/12/16 08:20:09;;;;;;;;;;;;;;;6.94;100.00;101353.91;5114575;27;20416;-72
2020/12/16 08:22:36;;;;;;;;;;;;;;;6.95;100.00;101359.22;5104987;28;20089;-72
2020/12/16 08:25:08;;;;;;;;;;;;;;;7.01;100.00;101360.69;5094019;28;19955;-72
2020/12/16 08:27:34;;;;;;;;;;;;;;;7.06;100.00;101355.91;5098622;28;20278;-72
2020/12/16 08:30:00;;;;;;;;;;;;;;;7.07;100.00;101360.34;5093606;28;19924;-72
2020/12/16 08:32:26;;;;;;;;;;;;;;;7.09;100.00;101360.25;5094861;28;19981;-72
2020/12/16 08:34:52;;;;;;;;;;;;;;;7.14;100.00;101368.97;5093180;28;20432;-72
2020/12/16 08:37:21;;;;;;;;;;;;;;;7.17;100.00;101369.66;5109654;28;19924;-72
2020/12/16 08:39:47;;;;;;;;;;;;;;;7.17;100.00;101379.59;5108911;28;19967;-72
2020/12/16 08:42:22;;;;;;;;;;;;;;;7.15;100.00;101371.59;5093180;28;19931;-73
2020/12/16 08:44:47;;;;;;;;;;;;;;;7.16;100.00;101376.03;5108095;28;20019;-72
2020/12/16 08:47:22;;;;;;;;;;;;;;;7.19;100.00;101378.56;5098744;28;19930;-72
2020/12/16 08:49:49;;;;;;;;;;;;;;;7.26;100.00;101379.06;5093264;28;20008;-71
2020/12/16 08:52:14;;;;;;;;;;;;;;;7.33;100.00;101395.81;5102398;28;20533;-72
2020/12/16 08:54:41;;;;;;;;;;;;;;;7.34;100.00;101398.41;5102197;28;19924;-71
2020/12/16 08:57:07;;;;;;;;;;;;;;;7.40;100.00;101386.38;5092441;28;19924;-72
2020/12/16 08:59:35;;;;;;;;;;;;;;;7.47;100.00;101393.19;5093094;28;19924;-72
2020/12/16 09:02:06;;;;;;;;;;;;;;;7.49;100.00;101391.25;5093094;28;20389;-72
2020/12/16 09:04:33;;;;;;;;;;;;;;;7.56;100.00;101390.91;5096701;28;20018;-72
2020/12/16 09:07:00;;;;;;;;;;;;;;;7.62;100.00;101396.81;5113157;28;20535;-72
2020/12/16 09:09:26;;;;;;;;;;;;;;;7.65;100.00;101390.38;5113224;28;19974;-72
2020/12/16 09:11:53;;;;;;;;;;;;;;;7.64;100.00;101394.94;5112335;28;20005;-72
2020/12/16 09:14:19;;;;;;;;;;;;;;;7.66;100.00;101390.28;5105915;28;19981;-72
2020/12/16 09:16:45;;;;;;;;;;;;;;;7.67;100.00;101383.03;5096449;28;19924;-73
2020/12/16 09:19:15;;;;;;;;;;;;;;;7.64;100.00;101384.13;5112555;28;20286;-72
2020/12/16 09:21:41;;;;;;;;;;;;;;;7.69;100.00;101381.13;5102561;28;19952;-72
2020/12/16 09:24:06;;;;;;;;;;;;;;;7.79;100.00;101393.16;5093816;28;19932;-73
2020/12/16 09:26:37;;;;;;;;;;;;;;;7.84;100.00;101399.16;5109682;28;20264;-72
2020/12/16 09:29:14;;;;;;;;;;;;;;;7.92;100.00;101393.28;5099894;28;19963;-72
2020/12/16 09:31:39;;;;;;;;;;;;;;;8.00;100.00;101396.41;5092603;28;19924;-72
2020/12/16 09:34:05;;;;;;;;;;;;;;;8.13;100.00;101391.13;5107055;28;19928;-72
2020/12/16 09:36:31;;;;;;;;;;;;;;;8.23;100.00;101386.03;5110350;28;19928;-72
2020/12/16 09:38:57;;;;;;;;;;;;;;;8.26;100.00;101388.56;5092608;28;20027;-72
2020/12/16 09:41:23;;;;;;;;;;;;;;;8.28;100.00;101383.91;5099498;28;19943;-72
2020/12/16 09:43:49;;;;;;;;;;;;;;;8.29;100.00;101382.94;5112843;28;20289;-72
2020/12/16 09:46:17;;;;;;;;;;;;;;;8.36;100.00;101391.56;5106411;28;19935;-72
2020/12/16 09:48:43;;;;;;;;;;;;;;;8.42;100.00;101393.91;5106959;28;19935;-71
2020/12/16 09:51:13;;;;;;;;;;;;;;;8.46;100.00;101392.78;5097498;28;19924;-72
2020/12/16 09:53:39;;;;;;;;;;;;;;;8.54;100.00;101392.31;5102971;28;20445;-72
2020/12/16 09:56:05;;;;;;;;;;;;;;;8.57;100.00;101396.66;5100111;28;20031;-73
2020/12/16 09:58:35;;;;;;;;;;;;;;;8.44;100.00;101397.34;5111400;28;19928;-72
2020/12/16 10:01:01;;;;;;;;;;;;;;;8.36;100.00;101399.66;5111802;28;19954;-72
2020/12/16 10:03:28;;;;;;;;;;;;;;;8.36;100.00;101402.38;5112364;28;20651;-72
2020/12/16 10:05:53;;;;;;;;;;;;;;;8.35;100.00;101417.75;5111691;28;20424;-73
2020/12/16 10:08:19;;;;;;;;;;;;;;;8.35;100.00;101411.44;5111333;28;19924;-73
2020/12/16 10:10:45;;;;;;;;;;;;;;;8.32;100.00;101403.53;5107675;28;19923;-72
2020/12/16 10:13:11;;;;;;;;;;;;;;;8.31;100.00;101401.78;5112169;28;19928;-72
2020/12/16 10:15:37;;;;;;;;;;;;;;;8.27;100.00;101397.53;5101876;28;19938;-72
2020/12/16 10:18:03;;;;;;;;;;;;;;;8.26;100.00;101398.47;5093811;28;19928;-72
2020/12/16 10:20:30;;;;;;;;;;;;;;;8.18;100.00;101409.78;5091577;28;19928;-72
2020/12/16 10:22:56;;;;;;;;;;;;;;;8.18;100.00;101407.94;5098144;28;19924;-72
2020/12/16 10:25:22;;;;;;;;;;;;;;;8.17;100.00;101406.19;5111992;28;19942;-72
2020/12/16 10:27:48;;;;;;;;;;;;;;;8.17;100.00;101406.19;5107892;28;20289;-72
2020/12/16 10:30:14;;;;;;;;;;;;;;;8.13;100.00;101410.06;5109970;28;19927;-72
2020/12/16 10:32:40;;;;;;;;;;;;;;;8.04;100.00;101402.50;5107289;28;20018;-72
2020/12/16 10:35:06;;;;;;;;;;;;;;;8.01;100.00;101410.78;5108203;28;19931;-72
2020/12/16 10:37:33;;;;;;;;;;;;;;;8.04;100.00;101414.19;5091487;28;19975;-72
2020/12/16 10:39:59;;;;;;;;;;;;;;;8.05;100.00;101420.47;5093454;28;19930;-72
2020/12/16 10:42:25;;;;;;;;;;;;;;;8.04;100.00;101416.91;5111534;28;19963;-72
2020/12/16 10:44:51;;;;;;;;;;;;;;;7.98;100.00;101414.53;5111440;28;19924;-73
2020/12/16 10:47:16;;;;;;;;;;;;;;;7.98;100.00;101411.00;5110535;28;20305;-73
2020/12/16 10:49:42;;;;;;;;;;;;;;;8.00;100.00;101411.75;5110034;28;19967;-72
2020/12/16 10:52:10;;;;;;;;;;;;;;;8.00;100.00;101409.94;5112013;28;20018;-72
2020/12/16 10:54:36;;;;;;;;;;;;;;;8.02;100.00;101421.50;5097374;28;19971;-72
2020/12/16 10:57:03;;;;;;;;;;;;;;;8.03;100.00;101422.38;5091430;28;19924;-72
2020/12/16 10:59:29;;;;;;;;;;;;;;;8.08;100.00;101419.41;5106413;28;19928;-72
2020/12/16 11:01:56;;;;;;;;;;;;;;;8.03;100.00;101420.56;5115967;28;20022;-72
2020/12/16 11:04:22;;;;;;;;;;;;;;;8.02;100.00;101415.25;5104325;28;19924;-72
2020/12/16 11:06:48;;;;;;;;;;;;;;;7.92;100.00;101408.63;5114400;28;19924;-73
2020/12/16 11:09:15;;;;;;;;;;;;;;;7.90;100.00;101407.84;5102517;28;19924;-73
2020/12/16 11:11:41;;;;;;;;;;;;;;;7.84;100.00;101401.88;5095400;28;20121;-72
2020/12/16 11:14:07;;;;;;;;;;;;;;;7.86;100.00;101405.31;5106536;28;20412;-73
2020/12/16 11:16:34;;;;;;;;;;;;;;;7.86;100.00;101408.03;5115586;28;20392;-71
2020/12/16 11:19:00;;;;;;;;;;;;;;;7.93;100.00;101403.13;5109842;28;19989;-72
2020/12/16 11:21:26;;;;;;;;;;;;;;;7.95;100.00;101398.50;5112529;28;20308;-72
2020/12/16 11:23:51;;;;;;;;;;;;;;;7.99;100.00;101394.66;5105775;28;19959;-72
2020/12/16 11:26:17;;;;;;;;;;;;;;;8.07;100.00;101404.13;5113952;28;20400;-72
2020/12/16 11:28:43;;;;;;;;;;;;;;;8.10;100.00;101407.53;5112056;28;19928;-72
2020/12/16 11:31:09;;;;;;;;;;;;;;;8.17;100.00;101400.78;5114841;28;19935;-72
2020/12/16 11:33:36;;;;;;;;;;;;;;;8.18;100.00;101397.13;5115211;28;19953;-72
2020/12/16 11:36:02;;;;;;;;;;;;;;;8.23;100.00;101395.97;5114826;28;20399;-72
2020/12/16 11:38:27;;;;;;;;;;;;;;;8.34;100.00;101402.47;5096129;28;19971;-72
2020/12/16 11:40:53;;;;;;;;;;;;;;;8.30;100.00;101397.34;5095931;28;19931;-72
2020/12/16 11:43:19;;;;;;;;;;;;;;;8.34;100.00;101405.19;5094511;28;20301;-71
2020/12/16 11:45:45;;;;;;;;;;;;;;;8.33;100.00;101406.13;5095214;28;19931;-73
2020/12/16 11:48:10;;;;;;;;;;;;;;;8.29;100.00;101403.72;5100927;28;19924;-72
2020/12/16 11:50:37;;;;;;;;;;;;;;;8.30;100.00;101398.22;5094765;28;19924;-72
2020/12/16 11:53:03;;;;;;;;;;;;;;;8.33;100.00;101408.84;5094509;28;20014;-71
2020/12/16 11:55:29;;;;;;;;;;;;;;;8.29;100.00;101403.72;5094452;28;20402;-67
2020/12/16 11:57:54;;;;;;;;;;;;;;;8.32;100.00;101401.69;5108664;28;19924;-66
2020/12/16 12:00:20;;;;;;;;;;;;;;;8.36;100.00;101410.50;5095598;28;19924;-67
2020/12/16 12:02:46;;;;;;;;;;;;;;;8.41;100.00;101408.38;5105632;28;19931;-67
2020/12/16 12:05:13;;;;;;;;;;;;;;;8.44;100.00;101408.19;5094351;28;19924;-67
2020/12/16 12:07:40;;;;;;;;;;;;;;;8.53;100.00;101415.78;5097429;28;19927;-67
2020/12/16 12:10:06;;;;;;;;;;;;;;;8.45;100.00;101411.78;5112820;28;20389;-67
2020/12/16 12:12:31;;;;;;;;;;;;;;;8.42;100.00;101412.84;5113947;28;19969;-67
2020/12/16 12:14:57;;;;;;;;;;;;;;;8.42;100.00;101418.25;5113699;28;19924;-67
2020/12/16 12:17:23;;;;;;;;;;;;;;;8.39;100.00;101418.41;5107306;28;20274;-68
2020/12/16 12:19:49;;;;;;;;;;;;;;;8.27;100.00;101420.06;5094209;28;19924;-68
2020/12/16 12:22:15;;;;;;;;;;;;;;;8.20;100.00;101419.56;5098793;28;19931;-68
2020/12/16 12:24:41;;;;;;;;;;;;;;;8.16;100.00;101417.09;5114540;28;19977;-67
2020/12/16 12:27:07;;;;;;;;;;;;;;;8.11;100.00;101414.69;5111845;28;19971;-67
2020/12/16 12:29:33;;;;;;;;;;;;;;;8.11;100.00;101420.09;5114216;28;19934;-66
2020/12/16 12:31:59;;;;;;;;;;;;;;;8.11;100.00;101427.31;5111469;28;19985;-67
2020/12/16 12:34:24;;;;;;;;;;;;;;;8.10;100.00;101421.06;5110550;28;19931;-66
2020/12/16 12:36:50;;;;;;;;;;;;;;;8.11;100.00;101425.50;5102335;28;20022;-66
2020/12/16 12:39:16;;;;;;;;;;;;;;;8.20;100.00;101419.56;5102100;28;20711;-66
2020/12/16 12:41:43;;;;;;;;;;;;;;;8.10;100.00;101420.19;5093792;28;19973;-66
2020/12/16 12:44:09;;;;;;;;;;;;;;;8.18;100.00;101424.16;5103060;28;20439;-66